Time;durP1;ratioP1;P1;durP2;ratioP2;P2;SDS_P1;SDS_P2;PMS_P1;PMS_P2;Temp;Humidity;BMP_temperature;BMP_pressure;BME280_temperature;BME280_humidity;BME280_pressure;Samples;Min_cycle;Max_cycle;Signal;HPM_P1;HPM_P2
2022/12/05 00:02:03;;;;;;;153.57;45.40;;;;;;;8.57;62.42;101534.88;4925699;28;98969;-67
2022/12/05 00:04:30;;;;;;;154.85;46.45;;;;;;;8.70;61.96;101529.41;4923979;28;96934;-65
2022/12/05 00:06:59;;;;;;;140.40;44.20;;;;;;;8.68;62.22;101522.41;4926803;28;99615;-65
2022/12/05 00:09:27;;;;;;;150.05;45.85;;;;;;;8.83;61.67;101530.09;4926066;28;99125;-66
2022/12/05 00:11:53;;;;;;;150.23;44.90;;;;;;;8.71;62.12;101528.53;4927943;28;98466;-67
2022/12/05 00:14:20;;;;;;;143.73;44.30;;;;;;;8.71;61.79;101530.28;4930492;28;96939;-66
2022/12/05 00:16:46;;;;;;;141.10;43.85;;;;;;;8.54;62.62;101529.66;4926413;28;98918;-69
2022/12/05 00:19:14;;;;;;;138.32;43.90;;;;;;;8.76;61.88;101529.31;4927387;28;98820;-65
2022/12/05 00:21:42;;;;;;;139.63;44.40;;;;;;;8.69;62.08;101532.94;4927319;28;96870;-66
2022/12/05 00:24:12;;;;;;;142.63;44.83;;;;;;;8.59;62.32;101533.97;4928303;28;98495;-66
2022/12/05 00:26:40;;;;;;;160.90;46.72;;;;;;;8.64;62.46;101534.78;4928341;28;99332;-66
2022/12/05 00:29:06;;;;;;;154.25;45.03;;;;;;;8.51;62.76;101533.22;4925359;28;99322;-66
2022/12/05 00:31:33;;;;;;;146.73;46.95;;;;;;;8.50;62.78;101530.59;4931905;28;96908;-66
2022/12/05 00:34:01;;;;;;;141.35;45.00;;;;;;;8.75;62.15;101539.88;4927514;28;97137;-66
2022/12/05 00:36:32;;;;;;;146.38;45.78;;;;;;;8.79;61.99;101538.94;4930174;28;98834;-65
2022/12/05 00:39:02;;;;;;;143.50;45.80;;;;;;;8.63;62.57;101542.69;4926758;28;98990;-66
2022/12/05 00:41:29;;;;;;;148.05;46.70;;;;;;;8.71;62.52;101540.81;4921918;28;96660;-66
2022/12/05 00:43:59;;;;;;;155.02;46.38;;;;;;;8.61;62.89;101531.31;4924815;28;97296;-65
2022/12/05 00:46:27;;;;;;;150.65;45.72;;;;;;;8.62;62.73;101536.56;4929195;28;99344;-66
2022/12/05 00:48:55;;;;;;;143.60;46.05;;;;;;;8.53;62.94;101536.72;4928840;28;99196;-64
2022/12/05 00:51:25;;;;;;;140.38;46.30;;;;;;;8.68;62.58;101530.31;4927858;28;97274;-65
2022/12/05 00:53:52;;;;;;;147.55;44.75;;;;;;;8.65;62.89;101536.53;4926977;28;96842;-67
2022/12/05 00:56:21;;;;;;;143.88;45.50;;;;;;;8.71;62.69;101533.78;4922824;28;98968;-65
2022/12/05 00:58:50;;;;;;;153.57;45.58;;;;;;;8.67;62.49;101537.34;4927334;28;97769;-65
2022/12/05 01:01:19;;;;;;;148.90;47.05;;;;;;;8.69;62.69;101527.66;4924722;28;97129;-66
2022/12/05 01:03:47;;;;;;;146.50;46.40;;;;;;;8.66;62.78;101532.13;4923742;28;98379;-65
2022/12/05 01:06:15;;;;;;;151.00;46.70;;;;;;;8.60;62.83;101519.88;4926175;28;99460;-65
2022/12/05 01:08:42;;;;;;;140.85;45.15;;;;;;;8.80;62.34;101527.50;4925423;28;97969;-66
2022/12/05 01:11:10;;;;;;;133.85;43.20;;;;;;;8.80;62.33;101523.09;4925922;28;96894;-66
2022/12/05 01:13:37;;;;;;;139.13;44.80;;;;;;;8.70;62.71;101521.50;4924641;28;97388;-65
2022/12/05 01:16:04;;;;;;;150.10;45.97;;;;;;;8.63;63.01;101514.59;4926972;28;99001;-66
2022/12/05 01:18:32;;;;;;;142.80;45.35;;;;;;;8.66;63.02;101516.31;4925840;28;98972;-65
2022/12/05 01:20:59;;;;;;;145.95;44.67;;;;;;;8.54;63.48;101506.81;4922478;28;96868;-65
2022/12/05 01:23:25;;;;;;;141.68;45.85;;;;;;;8.87;62.65;101513.31;4927186;28;97367;-65
2022/12/05 01:25:52;;;;;;;147.27;45.45;;;;;;;8.76;62.68;101510.00;4921058;28;98810;-66
2022/12/05 01:28:19;;;;;;;142.75;45.72;;;;;;;8.58;63.04;101510.28;4922771;28;99149;-66
2022/12/05 01:30:47;;;;;;;150.68;47.53;;;;;;;8.78;62.56;101505.59;4926990;28;96940;-66
2022/12/05 01:33:14;;;;;;;134.95;45.53;;;;;;;8.63;62.90;101509.31;4928428;28;97136;-66
2022/12/05 01:35:42;;;;;;;139.10;42.88;;;;;;;8.71;62.56;101506.56;4927231;28;98933;-68
2022/12/05 01:38:11;;;;;;;139.95;46.33;;;;;;;8.61;63.02;101502.31;4926874;28;100812;-65
2022/12/05 01:40:37;;;;;;;131.95;43.38;;;;;;;8.63;63.22;101504.06;4927498;28;98301;-67
2022/12/05 01:43:10;;;;;;;134.98;44.40;;;;;;;8.44;63.47;101501.72;4925022;28;97833;-66
2022/12/05 01:45:38;;;;;;;148.52;46.30;;;;;;;8.65;63.19;101504.03;4921358;28;98896;-66
2022/12/05 01:48:08;;;;;;;148.88;47.28;;;;;;;8.71;63.01;101511.84;4925979;28;98844;-65
2022/12/05 01:50:35;;;;;;;145.98;46.67;;;;;;;8.67;62.89;101507.50;4925661;28;96803;-68
2022/12/05 01:53:04;;;;;;;133.32;45.42;;;;;;;8.45;63.68;101503.47;4929459;28;96967;-65
2022/12/05 01:55:30;;;;;;;135.25;45.58;;;;;;;8.48;63.65;101498.13;4922488;28;99192;-67
2022/12/05 01:57:58;;;;;;;155.15;47.78;;;;;;;8.49;63.88;101494.63;4923975;28;98962;-67
2022/12/05 02:00:24;;;;;;;142.48;44.97;;;;;;;8.48;63.79;101488.47;4927436;28;97384;-67
2022/12/05 02:02:54;;;;;;;151.43;45.45;;;;;;;8.58;63.31;101495.34;4931106;28;96842;-66
2022/12/05 02:05:23;;;;;;;149.82;47.95;;;;;;;8.61;63.55;101494.41;4929007;28;99350;-65
2022/12/05 02:07:49;;;;;;;138.10;43.25;;;;;;;8.56;63.48;101491.00;4926934;28;99257;-66
2022/12/05 02:10:18;;;;;;;149.70;47.85;;;;;;;8.66;63.08;101495.25;4927955;28;96826;-66
2022/12/05 02:12:45;;;;;;;146.60;46.13;;;;;;;8.57;63.72;101487.47;4925105;28;98835;-66
2022/12/05 02:15:25;;;;;;;135.02;44.28;;;;;;;8.69;63.25;101492.53;4926585;28;99426;-67
2022/12/05 02:18:04;;;;;;;141.85;43.75;;;;;;;8.72;63.08;101496.03;4921345;28;98640;-66
2022/12/05 02:20:42;;;;;;;141.43;44.28;;;;;;;8.57;63.60;101492.75;4925979;28;96873;-67
2022/12/05 02:23:32;;;;;;;142.10;44.63;;;;;;;8.42;63.88;101495.59;4927514;28;96910;-67
2022/12/05 02:26:40;;;;;;;137.85;43.22;;;;;;;8.56;63.46;101496.25;4925086;28;98927;-66
2022/12/05 02:29:51;;;;;;;144.70;44.85;;;;;;;8.60;63.81;101493.53;4926874;28;101061;-66
2022/12/05 02:32:29;;;;;;;139.35;43.28;;;;;;;8.34;64.09;101491.31;4922537;28;99592;-65
2022/12/05 02:35:00;;;;;;;131.05;43.13;;;;;;;8.44;64.18;101493.81;4926689;28;96792;-67
2022/12/05 02:37:29;;;;;;;138.65;44.13;;;;;;;8.54;63.92;101488.38;4924411;28;99388;-66
2022/12/05 02:40:03;;;;;;;144.10;43.35;;;;;;;8.66;63.25;101503.16;4924034;28;98945;-65
2022/12/05 02:42:35;;;;;;;138.05;42.45;;;;;;;8.69;63.17;101497.81;4919738;28;97301;-67
2022/12/05 02:45:06;;;;;;;135.07;41.60;;;;;;;8.71;63.04;101501.31;4923673;28;96858;-66
2022/12/05 02:47:38;;;;;;;140.90;43.00;;;;;;;8.57;63.68;101500.66;4923795;28;99423;-66
2022/12/05 02:50:09;;;;;;;134.00;44.80;;;;;;;8.49;63.58;101495.47;4928103;28;98886;-66
2022/12/05 02:52:36;;;;;;;133.45;43.58;;;;;;;8.64;63.29;101504.94;4923651;28;97904;-66
2022/12/05 02:55:03;;;;;;;136.20;42.55;;;;;;;8.69;63.19;101497.81;4926267;28;97297;-66
2022/12/05 02:57:30;;;;;;;131.95;42.38;;;;;;;8.71;63.14;101494.28;4926859;28;98945;-66
2022/12/05 02:59:57;;;;;;;125.97;41.92;;;;;;;8.69;63.14;101484.63;4920768;28;99180;-66
2022/12/05 03:02:25;;;;;;;131.90;41.05;;;;;;;8.65;63.02;101483.84;4926674;28;96923;-67
2022/12/05 03:04:57;;;;;;;125.50;40.80;;;;;;;8.55;63.87;101486.63;4925747;28;96916;-66
2022/12/05 03:07:27;;;;;;;128.05;42.15;;;;;;;8.60;63.37;101480.38;4923070;28;100574;-65
2022/12/05 03:09:58;;;;;;;116.40;39.50;;;;;;;8.81;62.81;101473.91;4924931;28;99229;-65
2022/12/05 03:12:29;;;;;;;125.30;40.92;;;;;;;8.75;62.58;101472.22;4922675;28;96979;-67
2022/12/05 03:15:03;;;;;;;123.95;40.63;;;;;;;8.53;63.26;101470.00;4917805;28;96860;-66
2022/12/05 03:17:34;;;;;;;112.47;39.05;;;;;;;8.64;62.98;101473.31;4924200;28;98878;-67
2022/12/05 03:20:07;;;;;;;105.75;38.28;;;;;;;8.36;63.66;101465.84;4922681;28;99294;-66
2022/12/05 03:22:40;;;;;;;114.60;38.65;;;;;;;8.59;63.35;101475.16;4924003;28;96921;-66
2022/12/05 03:25:09;;;;;;;103.45;36.20;;;;;;;8.65;63.29;101481.19;4924124;28;97300;-66
2022/12/05 03:27:46;;;;;;;95.43;34.22;;;;;;;8.71;62.87;101474.94;4926916;28;98977;-65
2022/12/05 03:30:16;;;;;;;104.03;35.47;;;;;;;8.65;62.88;101472.41;4923383;28;99219;-66
2022/12/05 03:32:49;;;;;;;93.63;33.97;;;;;;;8.76;62.73;101481.00;4926359;28;96901;-67
2022/12/05 03:35:22;;;;;;;98.80;35.25;;;;;;;8.75;62.74;101479.28;4918756;28;98777;-66
2022/12/05 03:37:53;;;;;;;97.63;36.00;;;;;;;8.74;62.43;101478.41;4918840;28;101033;-65
2022/12/05 03:40:29;;;;;;;90.32;34.47;;;;;;;8.88;61.89;101483.44;4924654;28;100716;-66
2022/12/05 03:43:11;;;;;;;98.43;33.25;;;;;;;8.87;62.03;101488.72;4920347;28;96869;-65
2022/12/05 03:45:44;;;;;;;87.70;31.48;;;;;;;8.80;61.92;101485.31;4926142;28;97527;-67
2022/12/05 03:48:16;;;;;;;87.70;31.80;;;;;;;8.89;61.75;101484.31;4928813;28;99203;-66
2022/12/05 03:50:47;;;;;;;79.22;31.27;;;;;;;8.87;61.49;101478.19;4929515;28;98734;-72
2022/12/05 03:53:19;;;;;;;85.38;31.52;;;;;;;8.82;61.71;101477.41;4926932;28;96965;-72
2022/12/05 03:55:54;;;;;;;86.90;33.40;;;;;;;8.61;62.41;101473.34;4925194;28;96965;-72
2022/12/05 03:58:25;;;;;;;86.32;33.22;;;;;;;8.74;61.93;101469.63;4923998;28;99691;-71
2022/12/05 04:00:54;;;;;;;78.38;33.35;;;;;;;8.76;61.92;101473.09;4930161;28;98867;-72
2022/12/05 04:03:37;;;;;;;81.90;32.90;;;;;;;8.79;62.04;101473.06;4928847;28;97053;-72
2022/12/05 04:06:12;;;;;;;86.03;32.38;;;;;;;8.78;62.15;101468.69;4930768;28;97340;-73
2022/12/05 04:08:43;;;;;;;82.53;31.05;;;;;;;8.83;61.59;101473.88;4926157;28;98764;-71
2022/12/05 04:11:15;;;;;;;76.63;30.48;;;;;;;8.66;62.24;101461.00;4927127;28;99411;-71
2022/12/05 04:13:46;;;;;;;81.65;30.67;;;;;;;8.68;62.05;101464.44;4927309;28;97196;-71
2022/12/05 04:19:07;;;;;;;86.10;32.75;;;;;;;8.74;61.90;101480.16;4929304;28;97863;-72
2022/12/05 04:21:39;;;;;;;87.13;32.20;;;;;;;8.69;62.16;101474.09;4930637;28;98852;-71
2022/12/05 04:27:05;;;;;;;81.95;30.90;;;;;;;8.69;62.03;101464.44;4930109;28;97024;-71
2022/12/05 04:29:39;;;;;;;86.70;30.83;;;;;;;8.76;61.96;101467.84;4922997;28;99251;-70
2022/12/05 04:32:11;;;;;;;83.22;31.65;;;;;;;8.75;61.84;101469.59;4930081;28;99243;-72
2022/12/05 04:34:39;;;;;;;89.97;32.70;;;;;;;8.83;61.96;101468.59;4928352;28;98777;-70
2022/12/05 04:37:12;;;;;;;86.38;30.92;;;;;;;8.78;61.65;101466.94;4928106;28;96808;-73
2022/12/05 04:39:44;;;;;;;87.22;32.17;;;;;;;8.87;61.47;101470.28;4923362;28;99478;-72
2022/12/05 04:42:15;;;;;;;90.43;33.08;;;;;;;8.78;61.46;101471.31;4927130;28;98841;-72
2022/12/05 04:44:48;;;;;;;81.10;30.90;;;;;;;8.79;61.64;101467.81;4928420;28;96754;-72
2022/12/05 04:47:17;;;;;;;80.97;32.22;;;;;;;8.80;61.75;101474.78;4926137;28;97201;-73
2022/12/05 04:49:46;;;;;;;91.90;32.00;;;;;;;8.83;61.38;101473.88;4926134;28;99113;-72
2022/12/05 04:52:15;;;;;;;76.28;29.60;;;;;;;8.85;61.56;101470.34;4927403;28;100594;-74
2022/12/05 04:54:46;;;;;;;77.25;30.42;;;;;;;8.81;61.74;101471.25;4924525;28;97671;-71
2022/12/05 04:57:18;;;;;;;85.05;31.20;;;;;;;8.86;61.63;101474.69;4927666;28;96780;-70
2022/12/05 04:59:44;;;;;;;79.68;30.65;;;;;;;8.98;61.28;101463.94;4920384;28;99441;-71
2022/12/05 05:02:15;;;;;;;74.07;30.08;;;;;;;8.89;61.25;101474.63;4925485;28;98825;-72
2022/12/05 05:04:46;;;;;;;75.10;29.55;;;;;;;8.96;61.07;101471.00;4926834;28;96803;-71
2022/12/05 05:07:15;;;;;;;69.32;28.30;;;;;;;9.07;61.24;101476.94;4929045;28;97010;-74
2022/12/05 05:09:41;;;;;;;72.75;28.33;;;;;;;8.92;61.23;101471.97;4923629;28;98852;-70
2022/12/05 05:12:08;;;;;;;70.38;27.85;;;;;;;9.09;60.67;101475.16;4927362;28;99144;-72
2022/12/05 05:14:35;;;;;;;65.68;27.92;;;;;;;8.84;61.15;101478.25;4926525;28;96837;-72
2022/12/05 05:17:01;;;;;;;67.55;27.55;;;;;;;8.98;61.24;101474.50;4922672;28;97855;-73
2022/12/05 05:19:28;;;;;;;68.63;28.42;;;;;;;8.92;61.35;101477.25;4923483;28;101435;-72
2022/12/05 05:21:54;;;;;;;64.47;27.08;;;;;;;9.08;60.97;101473.41;4919551;28;98962;-73
2022/12/05 05:24:24;;;;;;;67.65;28.50;;;;;;;9.07;60.52;101468.16;4924416;28;97188;-72
2022/12/05 05:26:51;;;;;;;63.30;26.80;;;;;;;9.09;60.57;101471.66;4925370;28;99097;-71
2022/12/05 05:29:17;;;;;;;67.45;26.45;;;;;;;9.19;60.10;101468.81;4926697;28;99182;-72
2022/12/05 05:31:44;;;;;;;65.70;25.63;;;;;;;8.86;61.07;101479.09;4922571;28;98993;-71
2022/12/05 05:34:19;;;;;;;58.85;24.67;;;;;;;8.88;60.79;101474.66;4929245;28;96865;-72
2022/12/05 05:36:45;;;;;;;59.40;24.75;;;;;;;8.67;61.24;101470.59;4924199;28;96950;-72
2022/12/05 05:39:15;;;;;;;57.33;24.67;;;;;;;8.91;60.96;101472.84;4929640;28;98833;-72
2022/12/05 05:41:43;;;;;;;55.55;23.13;;;;;;;8.87;60.96;101471.16;4924517;28;98932;-71
2022/12/05 05:44:10;;;;;;;60.75;24.38;;;;;;;9.04;60.52;101471.75;4924604;28;97075;-72
2022/12/05 05:46:37;;;;;;;50.65;22.67;;;;;;;9.04;60.62;101473.50;4927202;28;96903;-71
2022/12/05 05:49:04;;;;;;;48.88;21.35;;;;;;;8.93;60.65;101464.91;4924271;28;99214;-72
2022/12/05 05:51:31;;;;;;;51.53;22.15;;;;;;;9.05;60.47;101476.13;4920527;28;98949;-71
2022/12/05 05:53:59;;;;;;;50.45;20.65;;;;;;;8.93;60.96;101478.06;4925952;28;96930;-71
2022/12/05 05:56:25;;;;;;;43.90;21.05;;;;;;;8.79;61.12;101476.53;4921615;28;97671;-71
2022/12/05 05:58:58;;;;;;;47.42;20.50;;;;;;;8.83;61.01;101477.38;4925060;28;98828;-72
2022/12/05 06:01:25;;;;;;;47.13;20.10;;;;;;;8.88;61.28;101483.44;4922128;28;98904;-73
2022/12/05 06:03:52;;;;;;;45.30;19.70;;;;;;;8.79;60.94;101478.34;4927052;28;97785;-71
2022/12/05 06:06:19;;;;;;;42.22;19.63;;;;;;;8.95;60.50;101474.53;4925754;28;96726;-75
2022/12/05 06:08:46;;;;;;;37.97;17.75;;;;;;;8.83;60.82;101480.03;4927323;28;98839;-72
2022/12/05 06:11:14;;;;;;;39.33;17.25;;;;;;;8.95;60.67;101482.44;4926067;28;99030;-71
2022/12/05 06:13:49;;;;;;;40.85;18.08;;;;;;;8.84;60.76;101483.53;4930445;28;96831;-68
2022/12/05 06:16:21;;;;;;;28.47;12.17;;;;;;;8.89;60.80;101485.19;4922227;28;96859;-67
2022/12/05 06:18:48;;;;;;;33.22;15.93;;;;;;;8.84;61.21;101486.16;4924684;28;99288;-67
2022/12/05 06:21:15;;;;;;;31.75;16.38;;;;;;;8.98;60.57;101490.31;4925724;28;98718;-66
2022/12/05 06:23:42;;;;;;;37.33;17.58;;;;;;;8.82;60.97;101486.19;4925591;28;97584;-67
2022/12/05 06:26:11;;;;;;;34.97;16.45;;;;;;;8.97;60.76;101485.06;4927485;28;96797;-65
2022/12/05 06:28:38;;;;;;;34.85;17.13;;;;;;;9.10;60.74;101484.81;4925088;28;99386;-66
2022/12/05 06:31:08;;;;;;;36.40;16.67;;;;;;;8.65;61.45;101489.09;4923909;28;98836;-66
2022/12/05 06:33:36;;;;;;;37.03;16.40;;;;;;;8.87;60.89;101486.97;4926175;28;96895;-67
2022/12/05 06:36:05;;;;;;;38.35;16.83;;;;;;;8.84;60.77;101491.44;4925070;28;100306;-66
2022/12/05 06:38:32;;;;;;;35.50;17.63;;;;;;;8.74;61.11;101495.97;4926803;28;98864;-66
2022/12/05 06:40:58;;;;;;;32.92;16.65;;;;;;;8.78;61.11;101503.81;4925149;28;99345;-66
2022/12/05 06:43:25;;;;;;;35.45;18.25;;;;;;;8.80;61.23;101506.41;4925115;28;97158;-67
2022/12/05 06:45:51;;;;;;;40.00;18.17;;;;;;;8.87;61.25;101501.91;4927077;28;97272;-65
2022/12/05 06:48:18;;;;;;;36.53;17.83;;;;;;;8.77;61.45;101502.06;4919150;28;99282;-66
2022/12/05 06:50:50;;;;;;;35.75;16.40;;;;;;;8.84;61.72;101507.25;4924891;28;100578;-65
2022/12/05 06:53:17;;;;;;;35.67;16.63;;;;;;;8.88;61.41;101515.06;4924513;28;98670;-65
2022/12/05 06:55:43;;;;;;;40.75;17.95;;;;;;;8.83;61.69;101510.78;4923092;28;97155;-66
2022/12/05 06:58:10;;;;;;;37.13;18.45;;;;;;;8.90;61.19;101521.19;4921950;28;98906;-66
2022/12/05 07:03:20;;;;;;;35.05;18.60;;;;;;;8.94;61.90;101520.25;4920783;28;97827;-66
2022/12/05 07:05:48;;;;;;;39.50;18.48;;;;;;;8.94;61.72;101514.97;4925158;28;96936;-67
2022/12/05 07:08:15;;;;;;;39.08;18.50;;;;;;;8.97;61.81;101519.31;4923977;28;99293;-67
2022/12/05 07:10:41;;;;;;;41.42;18.17;;;;;;;8.89;61.89;101514.19;4924982;28;100492;-65
2022/12/05 07:13:08;;;;;;;42.92;19.30;;;;;;;9.06;61.69;101519.16;4921947;28;96820;-65
2022/12/05 07:15:34;;;;;;;38.30;18.30;;;;;;;8.93;61.96;101515.84;4926256;28;97228;-67
2022/12/05 07:18:01;;;;;;;36.97;18.88;;;;;;;9.01;61.96;101523.63;4926081;28;99009;-65
2022/12/05 07:20:28;;;;;;;40.97;19.25;;;;;;;8.90;62.14;101523.81;4926782;28;98839;-66
2022/12/05 07:22:55;;;;;;;40.10;19.75;;;;;;;8.84;62.13;101523.06;4922826;28;97289;-66
2022/12/05 07:25:23;;;;;;;38.35;18.80;;;;;;;8.73;62.88;101525.84;4926980;28;97622;-67
2022/12/05 07:27:50;;;;;;;42.88;19.85;;;;;;;8.77;63.22;101524.91;4928011;28;99089;-66
2022/12/05 07:30:19;;;;;;;44.38;20.10;;;;;;;8.89;62.80;101521.22;4932868;28;99101;-66
2022/12/05 07:32:46;;;;;;;45.50;20.05;;;;;;;8.97;62.77;101525.47;4928470;28;99703;-66
2022/12/05 07:35:13;;;;;;;43.45;20.23;;;;;;;8.80;63.11;101522.22;4926531;28;96960;-66
2022/12/05 07:37:39;;;;;;;41.35;20.73;;;;;;;8.95;62.57;101527.25;4929478;28;98899;-66
2022/12/05 07:40:09;;;;;;;41.97;20.08;;;;;;;9.07;62.18;101532.31;4927858;28;99181;-67
2022/12/05 07:42:35;;;;;;;38.42;19.70;;;;;;;9.01;61.88;101524.50;4931876;28;98004;-67
2022/12/05 07:45:02;;;;;;;41.08;19.65;;;;;;;9.03;62.09;101520.09;4931636;28;96949;-66
2022/12/05 07:47:30;;;;;;;37.95;18.38;;;;;;;9.13;61.73;101534.84;4925908;28;99009;-66
2022/12/05 07:49:58;;;;;;;45.40;18.92;;;;;;;9.09;61.39;101527.91;4928896;28;99216;-66
2022/12/05 07:52:24;;;;;;;42.60;19.75;;;;;;;9.06;61.72;101529.69;4932734;28;96797;-66
2022/12/05 07:54:51;;;;;;;37.63;18.30;;;;;;;9.25;61.28;101530.28;4932631;28;96750;-67
2022/12/05 07:57:23;;;;;;;38.70;18.83;;;;;;;9.15;61.45;101522.50;4930514;28;97947;-67
2022/12/05 07:59:57;;;;;;;40.63;19.00;;;;;;;9.03;61.78;101521.84;4922526;28;97657;-66
2022/12/05 08:02:24;;;;;;;32.35;16.88;;;;;;;9.04;62.15;101526.25;4927079;28;97797;-67
2022/12/05 08:04:50;;;;;;;38.55;18.23;;;;;;;8.99;62.01;101522.81;4930248;28;96700;-68
2022/12/05 08:07:17;;;;;;;33.63;17.27;;;;;;;8.98;62.25;101527.22;4928167;28;98960;-67
2022/12/05 08:09:43;;;;;;;40.88;19.58;;;;;;;9.07;62.59;101532.31;4923089;28;98847;-66
2022/12/05 08:12:10;;;;;;;37.05;18.00;;;;;;;8.94;62.55;101536.06;4930276;28;97670;-66
2022/12/05 08:14:38;;;;;;;39.08;18.45;;;;;;;9.07;61.96;101531.44;4928542;28;97259;-67
2022/12/05 08:17:04;;;;;;;33.80;17.88;;;;;;;8.98;62.13;101537.75;4929618;28;99223;-67
2022/12/05 08:19:31;;;;;;;35.00;17.42;;;;;;;8.80;62.45;101532.75;4924748;28;99274;-67
2022/12/05 08:21:57;;;;;;;37.20;17.77;;;;;;;8.85;62.73;101536.22;4927277;28;96862;-67
2022/12/05 08:24:24;;;;;;;37.95;18.27;;;;;;;8.71;62.88;101535.56;4925524;28;97056;-67
2022/12/05 08:27:14;;;;;;;39.50;17.50;;;;;;;8.76;63.37;101531.94;4929412;28;98155;-68
2022/12/05 08:29:43;;;;;;;38.08;17.73;;;;;;;8.98;62.41;101534.25;4915994;28;100386;-68
2022/12/05 08:32:10;;;;;;;43.20;18.27;;;;;;;8.99;62.26;101534.19;4928579;28;96754;-65
2022/12/05 08:34:37;;;;;;;38.33;17.17;;;;;;;8.85;62.69;101530.94;4932122;28;96965;-66
2022/12/05 08:37:03;;;;;;;39.05;19.63;;;;;;;8.70;63.06;101537.31;4932626;28;101353;-66
2022/12/05 08:39:35;;;;;;;40.88;18.58;;;;;;;8.93;62.53;101534.31;4930594;28;99250;-66
2022/12/05 08:42:02;;;;;;;41.15;19.48;;;;;;;8.85;62.81;101530.06;4925748;28;98259;-65
2022/12/05 08:44:28;;;;;;;42.42;19.88;;;;;;;8.86;62.79;101527.38;4924734;28;97863;-66
2022/12/05 08:46:56;;;;;;;38.95;18.98;;;;;;;8.90;62.83;101531.75;4926787;28;97962;-68
2022/12/05 08:49:23;;;;;;;44.70;19.33;;;;;;;8.98;62.68;101523.72;4931298;28;100148;-67
2022/12/05 08:51:49;;;;;;;35.20;18.63;;;;;;;9.05;62.55;101533.25;4932013;28;97234;-67
2022/12/05 08:54:16;;;;;;;41.58;20.05;;;;;;;8.94;62.94;101528.13;4931253;28;97310;-67
2022/12/05 08:56:43;;;;;;;40.72;19.70;;;;;;;8.99;62.95;101530.72;4926521;28;99312;-66
2022/12/05 08:59:09;;;;;;;41.60;19.67;;;;;;;9.10;62.58;101532.28;4923989;28;97939;-67
2022/12/05 09:01:37;;;;;;;42.10;19.63;;;;;;;9.02;62.86;101528.03;4928701;28;96931;-67
2022/12/05 09:04:06;;;;;;;43.88;20.13;;;;;;;9.03;62.72;101529.75;4914789;28;103030;-67
2022/12/05 09:06:34;;;;;;;39.75;20.40;;;;;;;9.01;62.68;101537.69;4928318;28;99203;-67
2022/12/05 09:09:04;;;;;;;38.53;18.65;;;;;;;9.04;62.56;101527.13;4924765;28;99291;-67
2022/12/05 09:11:33;;;;;;;42.58;18.88;;;;;;;9.09;62.06;101529.66;4929008;28;100685;-66
2022/12/05 09:14:00;;;;;;;39.97;19.02;;;;;;;9.05;62.23;101526.22;4926428;28;98927;-68
2022/12/05 09:16:29;;;;;;;43.08;18.65;;;;;;;9.09;62.41;101535.81;4929366;28;99146;-67
2022/12/05 09:18:55;;;;;;;35.38;18.45;;;;;;;9.17;62.18;101523.38;4927632;28;100712;-66
2022/12/05 09:21:25;;;;;;;34.70;18.02;;;;;;;9.07;62.13;101526.16;4923376;28;98008;-67
2022/12/05 09:23:52;;;;;;;35.65;18.17;;;;;;;9.08;61.82;101522.66;4924229;28;97130;-67
2022/12/05 09:26:20;;;;;;;35.33;16.33;;;;;;;9.17;61.13;101530.41;4929292;28;99240;-65
2022/12/05 09:28:47;;;;;;;31.17;16.25;;;;;;;9.26;60.80;101524.06;4923493;28;98955;-65
2022/12/05 09:31:15;;;;;;;31.88;16.63;;;;;;;9.22;60.97;101527.69;4927341;28;97085;-67
2022/12/05 09:33:42;;;;;;;31.90;16.10;;;;;;;8.89;62.01;101524.72;4922475;28;96939;-66
2022/12/05 09:36:12;;;;;;;29.90;15.65;;;;;;;9.39;60.76;101522.97;4929727;28;99005;-66
2022/12/05 09:38:40;;;;;;;28.13;15.38;;;;;;;9.33;60.79;101533.63;4926339;28;99281;-66
2022/12/05 09:41:20;;;;;;;27.88;14.30;;;;;;;9.47;60.54;101527.22;4932722;28;97625;-65
2022/12/05 09:43:52;;;;;;;27.60;14.45;;;;;;;9.39;60.23;101529.09;4926751;28;97339;-66
2022/12/05 09:46:28;;;;;;;31.15;14.98;;;;;;;9.14;60.86;101527.81;4926332;28;99297;-65
2022/12/05 09:48:57;;;;;;;27.77;14.60;;;;;;;9.30;60.72;101529.28;4926035;28;98892;-66
2022/12/05 09:51:26;;;;;;;31.08;16.50;;;;;;;9.19;61.09;101529.47;4926895;28;97843;-66
2022/12/05 09:53:54;;;;;;;32.10;16.48;;;;;;;9.18;60.71;101529.50;4924967;28;97715;-66
2022/12/05 09:56:25;;;;;;;30.83;15.43;;;;;;;9.35;60.54;101522.16;4927067;28;99439;-66
2022/12/05 09:58:54;;;;;;;35.50;16.42;;;;;;;9.33;59.96;101523.06;4927490;28;100726;-66
2022/12/05 10:01:31;;;;;;;35.58;15.35;;;;;;;9.40;60.36;101511.53;4921360;28;96956;-67
2022/12/05 10:04:29;;;;;;;32.20;16.48;;;;;;;9.52;59.98;101521.84;4914323;28;99364;-67
2022/12/05 10:07:01;;;;;;;32.10;15.65;;;;;;;9.24;60.35;101523.25;4917073;28;98905;-67
2022/12/05 10:09:47;;;;;;;31.17;15.02;;;;;;;9.28;60.86;101519.66;4926053;28;99119;-65
2022/12/05 10:12:24;;;;;;;35.55;16.17;;;;;;;9.14;61.04;101520.78;4926587;28;97096;-66
2022/12/05 10:15:01;;;;;;;30.17;15.73;;;;;;;9.12;61.25;101517.28;4923230;28;96806;-67
2022/12/05 10:17:32;;;;;;;31.00;15.95;;;;;;;9.36;60.90;101512.47;4922191;28;98932;-66
2022/12/05 10:20:02;;;;;;;27.67;15.57;;;;;;;9.25;61.04;101509.19;4920400;28;98960;-66
2022/12/05 10:22:37;;;;;;;33.53;16.75;;;;;;;9.52;60.32;101517.44;4925227;28;97202;-67
2022/12/05 10:25:07;;;;;;;40.55;16.08;;;;;;;9.28;60.59;101509.09;4919682;28;97142;-66
2022/12/05 10:27:38;;;;;;;42.15;15.07;;;;;;;9.46;60.19;101520.19;4925286;28;101448;-66
2022/12/05 10:30:12;;;;;;;34.78;16.02;;;;;;;9.38;60.53;101515.97;4915569;28;98308;-66
2022/12/05 10:32:49;;;;;;;28.88;15.55;;;;;;;9.24;61.13;101518.00;4920724;28;98792;-66
2022/12/05 10:35:18;;;;;;;34.47;16.42;;;;;;;9.45;61.02;101514.97;4919515;28;97478;-68
2022/12/05 10:37:47;;;;;;;45.95;15.68;;;;;;;9.16;61.01;101513.72;4924029;28;98900;-67
2022/12/05 10:40:17;;;;;;;41.65;16.60;;;;;;;9.40;60.75;101519.44;4926968;28;99218;-66
2022/12/05 10:42:45;;;;;;;37.47;15.20;;;;;;;9.35;60.84;101513.38;4921633;28;97067;-67
2022/12/05 10:45:18;;;;;;;39.53;16.13;;;;;;;9.46;60.35;101514.03;4920900;28;97470;-65
2022/12/05 10:47:44;;;;;;;33.95;15.77;;;;;;;9.36;60.80;101512.47;4885831;28;1121030;-66
2022/12/05 10:50:22;;;;;;;78.80;17.58;;;;;;;9.42;60.77;101499.19;4926246;28;97302;-67
2022/12/05 10:52:51;;;;;;;34.63;15.30;;;;;;;9.32;61.15;101505.53;4924386;28;97493;-68
2022/12/05 10:55:19;;;;;;;54.33;17.92;;;;;;;9.27;61.49;101510.00;4927199;28;97195;-66
2022/12/05 10:57:50;;;;;;;39.25;16.13;;;;;;;9.31;60.97;101515.22;4928480;28;99005;-67
2022/12/05 11:00:21;;;;;;;61.05;16.42;;;;;;;9.04;61.47;101513.94;4924553;28;100720;-66
2022/12/05 11:02:49;;;;;;;30.48;17.33;;;;;;;9.10;61.69;101516.47;4924253;28;96874;-66
2022/12/05 11:05:27;;;;;;;40.85;16.02;;;;;;;9.40;60.62;101503.59;4926281;28;97915;-67
2022/12/05 11:07:54;;;;;;;33.38;16.27;;;;;;;9.35;60.97;101502.81;4922499;28;98323;-67
2022/12/05 11:10:25;;;;;;;37.95;15.45;;;;;;;9.27;61.11;101500.31;4924003;28;99346;-66
2022/12/05 11:12:52;;;;;;;36.20;16.55;;;;;;;9.52;60.50;101500.72;4925044;28;98692;-66
2022/12/05 11:15:23;;;;;;;45.22;16.67;;;;;;;9.71;60.08;101493.34;4928923;28;98251;-69
2022/12/05 11:17:50;;;;;;;37.53;16.13;;;;;;;9.40;60.58;101499.19;4927258;28;97723;-67
2022/12/05 11:20:39;;;;;;;33.65;16.77;;;;;;;9.55;60.62;101504.19;4926780;28;98754;-67
2022/12/05 11:23:22;;;;;;;28.52;15.45;;;;;;;9.57;60.15;101506.81;4925912;28;96989;-67
2022/12/05 11:25:51;;;;;;;39.70;17.85;;;;;;;9.46;60.76;101500.84;4926066;28;97254;-66
2022/12/05 11:28:39;;;;;;;35.22;17.00;;;;;;;9.37;60.60;101499.28;4920407;28;99489;-66
2022/12/05 11:31:18;;;;;;;32.45;16.45;;;;;;;9.37;60.95;101501.03;4919628;28;98829;-67
2022/12/05 11:34:01;;;;;;;33.42;17.33;;;;;;;9.34;61.21;101493.16;4921692;28;97159;-65
2022/12/05 11:36:36;;;;;;;30.63;16.40;;;;;;;9.57;60.96;101486.56;4926011;28;96948;-65